createdAt,value
2023-02-19T00:01:31.357Z,51.12
2023-02-19T00:04:05.272Z,51.37
2023-02-19T00:06:32.593Z,51.37
2023-02-19T00:08:59.301Z,51.24
2023-02-19T00:11:31.320Z,51.19
2023-02-19T00:13:58.520Z,51.18
2023-02-19T00:16:29.462Z,33.78
2023-02-19T00:19:05.519Z,34.31
2023-02-19T00:21:32.186Z,43.95
2023-02-19T00:24:03.744Z,46.92
2023-02-19T00:26:35.144Z,47.00
2023-02-19T00:29:04.059Z,47.52
2023-02-19T00:31:33.799Z,48.40
2023-02-19T00:34:04.930Z,48.87
2023-02-19T00:36:35.068Z,49.11
2023-02-19T00:39:04.579Z,49.46
2023-02-19T00:41:31.237Z,49.41
2023-02-19T00:43:58.538Z,49.51
2023-02-19T00:46:28.561Z,49.39
2023-02-19T00:48:57.520Z,49.58
2023-02-19T00:51:27.483Z,49.58
2023-02-19T00:53:54.207Z,49.88
2023-02-19T00:56:22.233Z,49.85
2023-02-19T00:58:48.891Z,49.78
2023-02-19T01:01:15.743Z,49.75
2023-02-19T01:03:42.458Z,50.13
2023-02-19T01:06:09.969Z,49.83
2023-02-19T01:08:39.376Z,50.08
2023-02-19T01:11:09.198Z,49.94
2023-02-19T01:13:36.176Z,50.29
2023-02-19T01:16:10.639Z,50.46
2023-02-19T01:18:39.541Z,50.56
2023-02-19T01:21:12.850Z,50.50
2023-02-19T01:23:41.814Z,50.81
2023-02-19T01:26:09.761Z,50.89
2023-02-19T01:28:36.474Z,51.06
2023-02-19T01:31:04.177Z,51.38
2023-02-19T01:33:33.610Z,51.40
2023-02-19T01:36:02.680Z,51.11
2023-02-19T01:38:31.501Z,51.41
2023-02-19T01:41:02.799Z,51.42
2023-02-19T01:43:29.490Z,51.54
2023-02-19T01:45:58.430Z,51.79
2023-02-19T01:48:38.393Z,51.19
2023-02-19T01:51:07.271Z,51.44
2023-02-19T01:53:36.670Z,51.39
2023-02-19T01:56:05.548Z,51.30
2023-02-19T01:58:33.861Z,51.40
2023-02-19T02:01:03.512Z,51.43
2023-02-19T02:03:30.289Z,51.43
2023-02-19T02:06:04.871Z,51.40
2023-02-19T02:08:50.500Z,51.62
2023-02-19T02:11:19.464Z,51.71
2023-02-19T02:13:46.241Z,51.53
2023-02-19T02:16:55.090Z,51.64
2023-02-19T02:19:32.393Z,51.75
2023-02-19T02:22:16.464Z,51.69
2023-02-19T02:25:21.530Z,52.12
2023-02-19T02:28:02.353Z,51.97
2023-02-19T02:30:35.816Z,52.09
2023-02-19T02:33:14.596Z,52.14
2023-02-19T02:36:03.901Z,52.08
2023-02-19T02:38:32.030Z,52.30
2023-02-19T02:40:58.844Z,52.50
2023-02-19T02:43:28.158Z,52.30
2023-02-19T02:45:55.032Z,52.67
2023-02-19T02:48:40.212Z,52.93
2023-02-19T02:51:12.420Z,53.03
2023-02-19T02:54:02.980Z,52.87
2023-02-19T02:56:31.783Z,53.26
2023-02-19T02:58:58.865Z,53.08
2023-02-19T03:01:48.553Z,52.95
2023-02-19T03:05:01.348Z,53.02
2023-02-19T03:07:33.045Z,53.14
2023-02-19T03:10:01.877Z,52.98
2023-02-19T03:12:47.092Z,52.60
2023-02-19T03:15:32.160Z,52.98
2023-02-19T03:18:21.996Z,53.05
2023-02-19T03:20:50.924Z,53.12
2023-02-19T03:23:20.293Z,52.93
2023-02-19T03:26:05.235Z,52.96
2023-02-19T03:28:51.852Z,52.81
2023-02-19T03:31:22.601Z,52.80
2023-02-19T03:33:52.196Z,52.94
2023-02-19T03:36:25.701Z,53.02
2023-02-19T03:38:59.235Z,52.93
2023-02-19T03:41:47.124Z,52.96
2023-02-19T03:44:25.554Z,52.95
2023-02-19T03:46:58.426Z,52.85
2023-02-19T03:49:40.258Z,53.03
2023-02-19T03:52:21.616Z,53.03
2023-02-19T03:54:58.291Z,52.95
2023-02-19T03:57:35.482Z,52.94
2023-02-19T04:00:16.275Z,53.04
2023-02-19T04:03:04.682Z,52.78
2023-02-19T04:05:35.906Z,53.12
2023-02-19T04:08:10.334Z,52.93
2023-02-19T04:10:39.102Z,52.96
2023-02-19T04:13:14.616Z,52.96
2023-02-19T04:15:41.781Z,53.05
2023-02-19T04:18:13.092Z,53.08
2023-02-19T04:20:42.971Z,53.12
2023-02-19T04:23:11.762Z,53.12
2023-02-19T04:25:41.573Z,53.15
2023-02-19T04:28:09.634Z,53.31
2023-02-19T04:30:41.117Z,53.30
2023-02-19T04:33:07.769Z,53.08
2023-02-19T04:35:36.640Z,53.18
2023-02-19T04:38:05.514Z,53.18
2023-02-19T04:40:32.120Z,53.00
2023-02-19T04:42:58.860Z,53.74
2023-02-19T04:45:27.653Z,53.44
2023-02-19T04:47:54.289Z,53.13
2023-02-19T04:50:23.414Z,53.36
2023-02-19T04:52:50.107Z,53.17
2023-02-19T04:55:20.011Z,53.45
2023-02-19T04:57:46.688Z,53.16
2023-02-19T05:00:16.162Z,53.40
2023-02-19T05:02:47.963Z,53.63
2023-02-19T05:05:14.696Z,53.21
2023-02-19T05:07:41.411Z,53.36
2023-02-19T05:10:08.268Z,53.46
2023-02-19T05:12:34.879Z,53.36
2023-02-19T05:15:01.550Z,53.40
2023-02-19T05:17:28.159Z,53.44
2023-02-19T05:19:54.853Z,53.63
2023-02-19T05:22:24.673Z,53.85
2023-02-19T05:24:51.338Z,53.67
2023-02-19T05:27:20.230Z,53.55
2023-02-19T05:29:49.020Z,53.70
2023-02-19T05:32:18.764Z,53.58
2023-02-19T05:34:47.539Z,53.60
2023-02-19T05:37:16.343Z,53.60
2023-02-19T05:39:45.271Z,53.47
2023-02-19T05:42:13.857Z,53.68
2023-02-19T05:44:42.740Z,53.58
2023-02-19T05:47:11.729Z,53.67
2023-02-19T05:49:38.406Z,53.50
2023-02-19T05:52:05.230Z,53.70
2023-02-19T05:54:34.052Z,53.79
2023-02-19T05:57:00.699Z,53.53
2023-02-19T05:59:27.548Z,53.79
2023-02-19T06:01:54.743Z,53.65
2023-02-19T06:04:21.439Z,53.78
2023-02-19T06:06:48.125Z,53.50
2023-02-19T06:09:16.930Z,53.66
2023-02-19T06:11:44.151Z,53.70
2023-02-19T06:14:14.802Z,53.79
2023-02-19T06:16:41.591Z,53.52
2023-02-19T06:19:08.442Z,53.63
2023-02-19T06:21:35.114Z,53.76
2023-02-19T06:24:06.485Z,53.73
2023-02-19T06:26:35.695Z,53.63
2023-02-19T06:29:04.523Z,53.49
2023-02-19T06:31:33.392Z,53.55
2023-02-19T06:34:07.356Z,53.52
2023-02-19T06:36:35.268Z,53.53
2023-02-19T06:39:02.354Z,53.42
2023-02-19T06:41:29.049Z,53.72
2023-02-19T06:43:57.583Z,53.94
2023-02-19T06:46:26.668Z,54.04
2023-02-19T06:48:53.299Z,54.23
2023-02-19T06:51:22.753Z,54.08
2023-02-19T06:53:52.086Z,54.18
2023-02-19T06:56:38.398Z,54.50
2023-02-19T06:59:07.007Z,54.33
2023-02-19T07:01:36.624Z,54.18
2023-02-19T07:04:03.672Z,54.29
2023-02-19T07:06:35.814Z,54.54
2023-02-19T07:09:05.641Z,54.48
2023-02-19T07:11:36.560Z,54.46
2023-02-19T07:14:04.278Z,54.37
2023-02-19T07:16:31.181Z,54.44
2023-02-19T07:18:58.434Z,54.65
2023-02-19T07:21:27.216Z,54.47
2023-02-19T07:23:53.945Z,54.36
2023-02-19T07:26:22.989Z,54.55
2023-02-19T07:28:52.809Z,54.48
2023-02-19T07:31:20.561Z,41.83
2023-02-19T07:33:50.046Z,36.98
2023-02-19T07:36:20.754Z,36.08
2023-02-19T07:38:49.116Z,34.88
2023-02-19T07:41:17.972Z,35.20
2023-02-19T07:43:47.304Z,34.43
2023-02-19T07:46:14.600Z,34.15
2023-02-19T07:48:42.595Z,34.00
2023-02-19T07:51:16.620Z,35.40
2023-02-19T07:53:45.430Z,34.81
2023-02-19T07:56:15.238Z,33.85
2023-02-19T07:58:48.754Z,33.38
2023-02-19T08:01:41.484Z,37.33
2023-02-19T08:04:10.888Z,40.74
2023-02-19T08:06:39.900Z,40.81
2023-02-19T08:09:08.700Z,41.15
2023-02-19T08:11:53.730Z,41.51
2023-02-19T08:14:20.370Z,41.58
2023-02-19T08:16:53.395Z,42.15
2023-02-19T08:19:22.362Z,42.89
2023-02-19T08:21:51.354Z,42.92
2023-02-19T08:24:20.179Z,43.51
2023-02-19T08:26:49.143Z,43.41
2023-02-19T08:29:15.730Z,43.19
2023-02-19T08:31:42.844Z,43.14
2023-02-19T08:34:09.816Z,43.12
2023-02-19T08:36:36.750Z,42.93
2023-02-19T08:39:06.046Z,42.58
2023-02-19T08:41:33.187Z,42.67
2023-02-19T08:44:03.035Z,42.71
2023-02-19T08:46:34.352Z,42.80
2023-02-19T08:49:03.438Z,42.52
2023-02-19T08:51:33.860Z,42.60
2023-02-19T08:54:03.458Z,42.66
2023-02-19T08:56:30.738Z,42.56
2023-02-19T08:58:57.574Z,42.46
2023-02-19T09:01:24.294Z,42.65
2023-02-19T09:03:55.727Z,42.75
2023-02-19T09:06:22.797Z,42.75
2023-02-19T09:08:49.551Z,42.78
2023-02-19T09:11:18.420Z,42.78
2023-02-19T09:13:47.452Z,42.87
2023-02-19T09:16:16.343Z,42.73
2023-02-19T09:18:43.200Z,42.91
2023-02-19T09:21:10.195Z,43.01
2023-02-19T09:23:40.212Z,42.77
2023-02-19T09:26:11.422Z,42.97
2023-02-19T09:28:41.517Z,43.04
2023-02-19T09:31:12.586Z,42.95
2023-02-19T09:33:46.078Z,42.89
2023-02-19T09:36:13.427Z,42.96
2023-02-19T09:38:40.665Z,42.98
2023-02-19T09:41:15.707Z,43.02
2023-02-19T09:43:45.361Z,42.99
2023-02-19T09:46:29.243Z,42.90
2023-02-19T09:48:59.390Z,43.03
2023-02-19T09:51:26.177Z,43.04
2023-02-19T09:53:55.220Z,42.91
2023-02-19T09:56:26.754Z,42.83
2023-02-19T09:58:55.418Z,43.01
2023-02-19T10:01:24.298Z,42.89
2023-02-19T10:03:50.960Z,42.91
2023-02-19T10:06:25.186Z,42.82
2023-02-19T10:08:56.704Z,42.99
2023-02-19T10:11:26.289Z,43.13
2023-02-19T10:14:05.484Z,42.97
2023-02-19T10:16:34.473Z,43.12
2023-02-19T10:19:01.170Z,43.15
2023-02-19T10:21:28.077Z,43.41
2023-02-19T10:24:02.994Z,43.74
2023-02-19T10:26:36.855Z,43.25
2023-02-19T10:29:04.382Z,43.41
2023-02-19T10:31:31.537Z,43.41
2023-02-19T10:34:00.439Z,43.64
2023-02-19T10:36:35.008Z,43.68
2023-02-19T10:39:06.247Z,43.65
2023-02-19T10:41:32.790Z,43.59
2023-02-19T10:44:16.592Z,43.51
2023-02-19T10:46:48.187Z,43.33
2023-02-19T10:49:38.789Z,43.57
2023-02-19T10:52:23.621Z,43.46
2023-02-19T10:54:56.282Z,43.51
2023-02-19T10:57:32.802Z,43.40
2023-02-19T11:00:19.379Z,43.43
2023-02-19T11:02:46.039Z,43.26
2023-02-19T11:05:14.473Z,43.45
2023-02-19T11:07:51.195Z,43.44
2023-02-19T11:10:28.580Z,43.37
2023-02-19T11:12:59.931Z,43.32
2023-02-19T11:15:34.321Z,43.24
2023-02-19T11:18:13.099Z,43.48
2023-02-19T11:20:49.308Z,43.49
2023-02-19T11:23:22.263Z,43.49
2023-02-19T11:25:49.682Z,43.34
2023-02-19T11:28:35.679Z,43.58
2023-02-19T11:31:22.870Z,43.64
2023-02-19T11:33:49.465Z,43.55
2023-02-19T11:36:16.122Z,43.68
2023-02-19T11:38:45.436Z,43.87
2023-02-19T11:41:19.902Z,43.99
2023-02-19T11:43:49.911Z,43.80
2023-02-19T11:46:23.070Z,43.86
2023-02-19T11:49:11.074Z,43.98
2023-02-19T11:52:02.545Z,44.04
2023-02-19T11:54:48.804Z,44.07
2023-02-19T11:57:40.210Z,44.09
2023-02-19T12:00:21.005Z,44.09
2023-02-19T12:03:20.146Z,44.23
2023-02-19T12:06:02.074Z,44.20
2023-02-19T12:08:34.777Z,44.29
2023-02-19T12:11:20.132Z,44.22
2023-02-19T12:14:05.646Z,44.44
2023-02-19T12:16:43.839Z,44.44
2023-02-19T12:19:29.263Z,44.56
2023-02-19T12:21:55.841Z,44.45
2023-02-19T12:24:37.383Z,44.59
2023-02-19T12:27:22.504Z,44.52
2023-02-19T12:30:19.903Z,44.52
2023-02-19T12:33:04.792Z,44.53
2023-02-19T12:35:54.785Z,44.65
2023-02-19T12:38:35.199Z,44.55
2023-02-19T12:41:11.825Z,44.62
2023-02-19T12:43:40.764Z,44.81
2023-02-19T12:46:20.223Z,44.64
2023-02-19T12:48:53.478Z,44.68
2023-02-19T12:51:44.346Z,44.63
2023-02-19T12:54:15.128Z,44.76
2023-02-19T12:57:07.905Z,44.90
2023-02-19T12:59:44.018Z,44.62
2023-02-19T13:02:28.033Z,44.62
2023-02-19T13:05:19.489Z,44.72
2023-02-19T13:08:04.390Z,44.77
2023-02-19T13:10:52.803Z,44.81
2023-02-19T13:13:22.024Z,44.67
2023-02-19T13:15:54.039Z,44.75
2023-02-19T13:18:26.277Z,44.72
2023-02-19T13:20:55.897Z,44.70
2023-02-19T13:23:46.642Z,44.73
2023-02-19T13:26:44.154Z,44.52
2023-02-19T13:29:35.094Z,44.80
2023-02-19T13:32:40.525Z,44.59
2023-02-19T13:35:18.117Z,44.57
2023-02-19T13:37:46.915Z,44.79
2023-02-19T13:40:39.908Z,44.50
2023-02-19T13:43:08.029Z,44.62
2023-02-19T13:45:41.979Z,44.63
2023-02-19T13:48:14.410Z,44.88
2023-02-19T13:50:41.389Z,44.93
2023-02-19T13:53:54.126Z,45.03
2023-02-19T13:56:30.140Z,45.29
2023-02-19T13:59:36.053Z,45.24
2023-02-19T14:02:02.733Z,45.28
2023-02-19T14:04:32.401Z,45.53
2023-02-19T14:07:05.144Z,45.52
2023-02-19T14:09:34.492Z,45.46
2023-02-19T14:12:10.511Z,45.56
2023-02-19T14:15:07.025Z,45.56
2023-02-19T14:17:39.988Z,45.82
2023-02-19T14:20:09.763Z,45.72
2023-02-19T14:22:57.472Z,45.75
2023-02-19T14:25:35.886Z,45.56
2023-02-19T14:28:21.078Z,45.69
2023-02-19T14:30:55.119Z,45.78
2023-02-19T14:33:29.105Z,45.78
2023-02-19T14:36:34.539Z,45.53
2023-02-19T14:39:08.089Z,45.71
2023-02-19T14:41:38.726Z,45.76
2023-02-19T14:44:06.085Z,45.63
2023-02-19T14:46:42.110Z,45.58
2023-02-19T14:49:36.483Z,45.63
2023-02-19T14:52:09.972Z,45.64
2023-02-19T14:54:50.289Z,45.52
2023-02-19T14:57:27.419Z,45.51
2023-02-19T14:59:58.876Z,45.56
2023-02-19T15:02:28.709Z,45.35
2023-02-19T15:04:55.557Z,45.35
2023-02-19T15:07:30.289Z,45.44
2023-02-19T15:10:05.567Z,45.57
2023-02-19T15:12:39.937Z,45.42
2023-02-19T15:15:07.289Z,45.48
2023-02-19T15:17:39.797Z,45.51
2023-02-19T15:20:11.764Z,45.36
2023-02-19T15:22:39.894Z,45.47
2023-02-19T15:25:08.686Z,45.36
2023-02-19T15:27:37.605Z,45.48
2023-02-19T15:30:04.448Z,45.25
2023-02-19T15:32:33.209Z,45.45
2023-02-19T15:35:01.581Z,45.37
2023-02-19T15:37:32.856Z,45.58
2023-02-19T15:40:01.163Z,45.37
2023-02-19T15:42:32.012Z,45.44
2023-02-19T15:45:02.723Z,45.46
2023-02-19T15:47:33.273Z,45.18
2023-02-19T15:50:12.581Z,45.40
2023-02-19T15:53:10.387Z,45.17
2023-02-19T15:55:41.366Z,45.16
2023-02-19T15:58:20.347Z,45.09
2023-02-19T16:00:49.823Z,45.23
2023-02-19T16:03:25.696Z,45.19
2023-02-19T16:06:01.622Z,45.25
2023-02-19T16:08:38.962Z,45.25
2023-02-19T16:11:29.426Z,45.23
2023-02-19T16:14:19.279Z,45.11
2023-02-19T16:16:46.797Z,45.06
2023-02-19T16:19:13.460Z,45.04
2023-02-19T16:21:44.145Z,45.35
2023-02-19T16:24:16.873Z,45.16
2023-02-19T16:26:46.707Z,45.03
2023-02-19T16:29:32.960Z,45.19
2023-02-19T16:32:01.626Z,45.26
2023-02-19T16:34:39.527Z,45.05
2023-02-19T16:37:30.295Z,45.11
2023-02-19T16:40:37.827Z,45.16
2023-02-19T16:43:04.422Z,45.08
2023-02-19T16:45:33.537Z,45.21
2023-02-19T16:48:04.880Z,44.98
2023-02-19T16:50:36.317Z,44.90
2023-02-19T16:53:05.793Z,45.07
2023-02-19T16:55:34.625Z,45.10
2023-02-19T16:58:01.361Z,44.94
2023-02-19T17:00:33.298Z,45.16
2023-02-19T17:03:09.011Z,45.18
2023-02-19T17:05:38.141Z,44.90
2023-02-19T17:08:26.553Z,44.92
2023-02-19T17:10:55.836Z,44.92
2023-02-19T17:13:25.380Z,45.13
2023-02-19T17:15:52.012Z,44.99
2023-02-19T17:18:21.575Z,45.03
2023-02-19T17:20:59.696Z,44.99
2023-02-19T17:23:26.473Z,44.90
2023-02-19T17:25:55.359Z,44.68
2023-02-19T17:28:24.361Z,44.98
2023-02-19T17:30:53.286Z,44.83
2023-02-19T17:33:20.010Z,44.96
2023-02-19T17:35:49.013Z,44.98
2023-02-19T17:38:18.595Z,44.90
2023-02-19T17:40:47.408Z,44.94
2023-02-19T17:43:14.720Z,44.83
2023-02-19T17:45:41.621Z,44.68
2023-02-19T17:48:15.049Z,44.78
2023-02-19T17:50:44.143Z,44.80
2023-02-19T17:53:12.958Z,44.96
2023-02-19T17:55:39.685Z,44.79
2023-02-19T17:58:06.384Z,44.79
2023-02-19T18:00:36.654Z,44.74
2023-02-19T18:03:03.858Z,45.00
2023-02-19T18:05:32.911Z,44.79
2023-02-19T18:07:59.525Z,44.79
2023-02-19T18:10:30.999Z,44.75
2023-02-19T18:13:00.413Z,44.80
2023-02-19T18:15:27.010Z,44.83
2023-02-19T18:17:54.246Z,44.85
2023-02-19T18:20:28.104Z,44.70
2023-02-19T18:22:55.268Z,44.68
2023-02-19T18:25:22.090Z,44.67
2023-02-19T18:27:48.862Z,44.82
2023-02-19T18:30:18.450Z,44.68
2023-02-19T18:32:48.576Z,44.73
2023-02-19T18:35:18.352Z,44.79
2023-02-19T18:37:45.093Z,44.79
2023-02-19T18:40:12.152Z,44.97
2023-02-19T18:42:41.477Z,44.74
2023-02-19T18:45:08.270Z,44.69
2023-02-19T18:47:37.073Z,44.87
2023-02-19T18:50:08.373Z,44.77
2023-02-19T18:52:34.970Z,44.81
2023-02-19T18:55:03.821Z,44.81
2023-02-19T18:57:32.586Z,44.68
2023-02-19T19:00:01.488Z,44.60
2023-02-19T19:02:33.745Z,44.73
2023-02-19T19:05:06.350Z,44.70
2023-02-19T19:07:33.018Z,44.56
2023-02-19T19:10:01.904Z,44.70
2023-02-19T19:12:30.790Z,44.77
2023-02-19T19:15:00.433Z,44.44
2023-02-19T19:17:27.153Z,44.47
2023-02-19T19:19:56.484Z,44.70
2023-02-19T19:22:25.263Z,44.87
2023-02-19T19:24:54.319Z,45.49
2023-02-19T19:27:21.064Z,45.47
2023-02-19T19:29:50.141Z,45.54
2023-02-19T19:32:19.220Z,45.54
2023-02-19T19:34:48.286Z,45.61
2023-02-19T19:37:19.595Z,45.63
2023-02-19T19:39:46.195Z,45.41
2023-02-19T19:42:12.939Z,45.40
2023-02-19T19:44:39.836Z,45.21
2023-02-19T19:47:06.475Z,45.26
2023-02-19T19:49:35.228Z,45.33
2023-02-19T19:52:05.054Z,45.11
2023-02-19T19:54:34.055Z,44.89
2023-02-19T19:57:03.475Z,44.66
2023-02-19T19:59:32.424Z,44.94
2023-02-19T20:01:59.278Z,45.01
2023-02-19T20:04:28.083Z,45.03
2023-02-19T20:06:56.914Z,44.88
2023-02-19T20:09:29.973Z,45.04
2023-02-19T20:11:56.800Z,44.84
2023-02-19T20:14:23.653Z,45.03
2023-02-19T20:16:50.686Z,44.99
2023-02-19T20:19:20.620Z,45.30
2023-02-19T20:21:53.749Z,45.41
2023-02-19T20:24:26.058Z,45.45
2023-02-19T20:26:58.679Z,45.12
2023-02-19T20:29:27.916Z,45.47
2023-02-19T20:31:57.448Z,45.50
2023-02-19T20:34:24.208Z,45.71
2023-02-19T20:36:53.460Z,45.74
2023-02-19T20:39:28.650Z,45.73
2023-02-19T20:41:57.758Z,46.12
2023-02-19T20:44:27.232Z,46.15
2023-02-19T20:46:54.012Z,46.23
2023-02-19T20:49:22.507Z,46.64
2023-02-19T20:52:02.396Z,47.09
2023-02-19T20:54:30.725Z,47.44
2023-02-19T20:56:59.922Z,47.81
2023-02-19T20:59:30.943Z,48.29
2023-02-19T21:01:58.580Z,48.44
2023-02-19T21:04:27.699Z,48.42
2023-02-19T21:06:54.440Z,48.67
2023-02-19T21:09:21.701Z,48.85
2023-02-19T21:11:48.708Z,48.80
2023-02-19T21:14:15.496Z,48.82
2023-02-19T21:16:44.346Z,48.93
2023-02-19T21:19:13.207Z,49.01
2023-02-19T21:21:42.087Z,48.73
2023-02-19T21:24:13.073Z,49.00
2023-02-19T21:26:40.197Z,49.08
2023-02-19T21:29:10.654Z,48.80
2023-02-19T21:31:44.585Z,49.00
2023-02-19T21:34:13.103Z,48.93
2023-02-19T21:36:39.849Z,48.96
2023-02-19T21:39:07.318Z,48.87
2023-02-19T21:41:36.118Z,48.80
2023-02-19T21:44:02.854Z,48.73
2023-02-19T21:46:29.507Z,48.74
2023-02-19T21:48:56.430Z,48.51
2023-02-19T21:51:31.815Z,48.68
2023-02-19T21:53:58.828Z,48.51
2023-02-19T21:56:30.185Z,48.26
2023-02-19T21:58:59.036Z,48.39
2023-02-19T22:01:31.689Z,48.41
2023-02-19T22:04:01.032Z,48.58
2023-02-19T22:06:30.887Z,48.35
2023-02-19T22:08:58.262Z,48.31
2023-02-19T22:11:25.013Z,48.27
2023-02-19T22:13:51.751Z,48.37
2023-02-19T22:16:20.768Z,48.33
2023-02-19T22:18:51.398Z,48.54
2023-02-19T22:21:20.806Z,48.54
2023-02-19T22:23:50.066Z,48.61
2023-02-19T22:26:18.862Z,48.22
2023-02-19T22:28:47.708Z,48.63
2023-02-19T22:31:18.238Z,49.06
2023-02-19T22:33:49.602Z,48.62
2023-02-19T22:36:16.849Z,48.87
2023-02-19T22:38:43.540Z,48.89
2023-02-19T22:41:12.349Z,49.01
2023-02-19T22:43:43.774Z,49.14
2023-02-19T22:46:14.828Z,49.23
2023-02-19T22:48:46.477Z,49.17
2023-02-19T22:51:14.906Z,49.17
2023-02-19T22:53:44.789Z,48.95
2023-02-19T22:56:18.130Z,49.18
2023-02-19T22:58:49.499Z,49.18
2023-02-19T23:01:16.225Z,50.10
2023-02-19T23:03:52.570Z,50.41
2023-02-19T23:06:25.006Z,50.61
2023-02-19T23:08:52.598Z,50.73
2023-02-19T23:11:29.702Z,50.87
2023-02-19T23:13:59.219Z,51.03
2023-02-19T23:16:28.476Z,51.11
2023-02-19T23:18:55.258Z,51.19
2023-02-19T23:21:22.160Z,51.16
2023-02-19T23:23:48.856Z,51.13
2023-02-19T23:26:15.990Z,51.24
2023-02-19T23:28:42.846Z,51.29
2023-02-19T23:31:11.729Z,51.29
2023-02-19T23:33:40.888Z,51.31
2023-02-19T23:36:08.197Z,51.50
2023-02-19T23:38:37.221Z,51.79
2023-02-19T23:41:04.118Z,51.77
2023-02-19T23:43:33.043Z,51.85
2023-02-19T23:46:01.897Z,51.73
2023-02-19T23:48:30.983Z,52.12
2023-02-19T23:50:57.617Z,52.09
2023-02-19T23:53:27.091Z,52.34
2023-02-19T23:55:53.710Z,52.42
2023-02-19T23:58:22.536Z,52.37
